Time;durP1;ratioP1;P1;durP2;ratioP2;P2;SDS_P1;SDS_P2;PMS_P1;PMS_P2;Temp;Humidity;BMP_temperature;BMP_pressure;BME280_temperature;BME280_humidity;BME280_pressure;Samples;Min_cycle;Max_cycle;Signal;HPM_P1;HPM_P2
2021/06/17 00:02:23;;;;;;;16.73;8.90;;;;;;;21.53;82.87;101021.13;6224495;28;20405;-79
2021/06/17 00:05:29;;;;;;;13.30;7.88;;;;;;;21.50;83.19;101022.25;6223948;28;20050;-78
2021/06/17 00:08:31;;;;;;;15.32;8.45;;;;;;;21.51;83.44;101023.09;6225018;28;20521;-78
2021/06/17 00:11:33;;;;;;;12.30;8.55;;;;;;;21.44;83.68;101024.69;6226161;28;20100;-78
2021/06/17 00:14:35;;;;;;;16.63;9.27;;;;;;;21.43;83.74;101017.63;6229587;28;20054;-79
2021/06/17 00:17:36;;;;;;;15.98;9.18;;;;;;;21.37;83.40;101019.06;6228720;28;20081;-79
2021/06/17 00:20:39;;;;;;;14.88;8.30;;;;;;;21.38;83.28;101019.88;6228867;28;20049;-78
2021/06/17 00:23:41;;;;;;;12.38;9.35;;;;;;;21.36;84.19;101020.03;6229153;28;20061;-78
2021/06/17 00:26:43;;;;;;;16.38;8.20;;;;;;;21.33;83.69;101020.31;6228648;28;20046;-78
2021/06/17 00:29:44;;;;;;;12.02;8.68;;;;;;;21.28;84.02;101026.06;6228192;28;20053;-78
2021/06/17 00:32:45;;;;;;;14.25;8.27;;;;;;;21.26;84.34;101014.69;6228456;28;20512;-79
2021/06/17 00:35:48;;;;;;;12.07;8.63;;;;;;;21.21;84.28;101021.44;6227936;28;20056;-78
2021/06/17 00:38:50;;;;;;;15.18;7.90;;;;;;;21.19;84.75;101010.91;6227969;28;20049;-78
2021/06/17 00:41:51;;;;;;;9.88;8.40;;;;;;;21.20;84.35;101017.09;6228283;28;20050;-78
2021/06/17 00:44:53;;;;;;;11.77;8.00;;;;;;;21.14;84.55;101009.66;6228113;28;20057;-78
2021/06/17 00:47:55;;;;;;;12.23;9.05;;;;;;;21.13;84.54;101007.97;6227631;28;20057;-78
2021/06/17 00:51:01;;;;;;;12.55;9.05;;;;;;;21.09;84.81;101022.59;6227549;28;20061;-78
2021/06/17 00:54:03;;;;;;;14.55;8.82;;;;;;;20.97;85.07;101006.72;6228332;28;20050;-78
2021/06/17 00:57:07;;;;;;;14.40;8.93;;;;;;;21.04;85.28;101009.69;6228877;28;20049;-78
2021/06/17 01:00:12;;;;;;;10.38;8.13;;;;;;;20.97;85.04;101009.38;6226010;28;20057;-77
2021/06/17 01:03:14;;;;;;;10.73;8.65;;;;;;;20.87;85.84;101010.41;6227700;28;20054;-76
2021/06/17 01:06:16;;;;;;;12.20;8.05;;;;;;;20.84;85.57;101011.50;6226075;28;20041;-76
2021/06/17 01:09:31;;;;;;;16.17;8.43;;;;;;;20.80;86.02;101015.44;6226016;28;20661;-77
2021/06/17 01:12:44;;;;;;;10.60;9.02;;;;;;;20.76;86.69;101014.91;6225899;28;20054;-77
2021/06/17 01:15:52;;;;;;;10.65;8.38;;;;;;;20.70;86.58;101012.78;6225464;28;20050;-78
2021/06/17 01:19:00;;;;;;;11.18;9.18;;;;;;;20.66;86.95;101010.53;6225766;28;20500;-78
2021/06/17 01:22:12;;;;;;;13.30;9.57;;;;;;;20.54;87.38;101009.00;6224592;28;20489;-77
2021/06/17 01:25:37;;;;;;;14.98;9.68;;;;;;;20.50;87.39;101014.63;6225407;28;20054;-77
2021/06/17 01:28:42;;;;;;;13.18;9.48;;;;;;;20.46;87.50;101007.84;6225017;28;20053;-77
2021/06/17 01:31:44;;;;;;;14.32;9.80;;;;;;;20.42;88.30;101014.44;6226405;28;20077;-76
2021/06/17 01:34:49;;;;;;;13.93;9.48;;;;;;;20.35;89.10;101013.31;6225984;28;20068;-76
2021/06/17 01:37:54;;;;;;;13.30;9.57;;;;;;;20.37;89.20;101019.34;6227249;28;20048;-76
2021/06/17 01:40:56;;;;;;;18.25;11.23;;;;;;;20.37;89.01;101013.16;6226495;28;20049;-77
2021/06/17 01:44:01;;;;;;;18.08;10.85;;;;;;;20.31;90.06;101022.56;6225375;28;20054;-77
2021/06/17 01:47:04;;;;;;;16.75;9.75;;;;;;;20.28;90.54;101015.69;6224761;28;20420;-77
2021/06/17 01:50:07;;;;;;;16.20;10.90;;;;;;;20.26;91.30;101014.16;6224818;28;20057;-77
2021/06/17 01:53:10;;;;;;;17.10;11.02;;;;;;;20.21;91.12;101009.22;6224766;28;20046;-77
2021/06/17 01:56:11;;;;;;;17.52;10.70;;;;;;;20.14;91.67;101007.22;6224651;28;20049;-77
2021/06/17 01:59:14;;;;;;;15.68;10.55;;;;;;;20.11;92.07;101005.66;6224439;28;20054;-78
2021/06/17 02:02:17;;;;;;;17.25;11.98;;;;;;;20.10;92.13;100997.81;6224777;28;20460;-77
2021/06/17 02:05:18;;;;;;;15.73;11.13;;;;;;;20.08;92.38;100997.94;6224445;28;20386;-77
2021/06/17 02:08:21;;;;;;;20.17;11.32;;;;;;;20.05;92.90;100994.72;6224549;28;20080;-76
2021/06/17 02:11:25;;;;;;;14.23;11.55;;;;;;;20.00;92.98;100992.44;6224295;28;20049;-76
2021/06/17 02:14:29;;;;;;;15.00;11.52;;;;;;;20.04;92.68;100991.19;6224496;28;20410;-77
2021/06/17 02:17:31;;;;;;;15.57;11.15;;;;;;;19.96;92.99;100980.38;6224241;28;20452;-78
2021/06/17 02:20:33;;;;;;;14.93;11.07;;;;;;;19.95;93.43;100981.34;6223574;28;20054;-77
2021/06/17 02:23:37;;;;;;;18.20;11.07;;;;;;;19.93;93.61;100988.63;6224072;28;20524;-77
2021/06/17 02:26:41;;;;;;;15.95;11.65;;;;;;;19.89;93.78;100979.22;6223880;28;20104;-77
2021/06/17 02:29:47;;;;;;;19.48;12.23;;;;;;;19.88;93.20;100980.19;6223590;28;20103;-77
2021/06/17 02:32:50;;;;;;;22.05;12.20;;;;;;;19.82;93.99;100983.41;6224230;28;20046;-77
2021/06/17 02:35:55;;;;;;;17.48;12.43;;;;;;;19.79;93.97;100981.00;6223517;28;20053;-77
2021/06/17 02:38:58;;;;;;;15.88;11.50;;;;;;;19.76;94.12;100976.81;6223750;28;20097;-77
2021/06/17 02:42:01;;;;;;;18.33;11.13;;;;;;;19.75;94.28;100975.94;6223664;28;20049;-77
2021/06/17 02:45:05;;;;;;;14.70;10.32;;;;;;;19.72;94.34;100980.72;6223818;28;20073;-77
2021/06/17 02:48:08;;;;;;;17.10;11.35;;;;;;;19.68;94.48;100980.16;6264985;22;20049;-79
2021/06/17 02:51:09;;;;;;;18.77;11.93;;;;;;;19.67;94.42;100978.47;6249400;28;20052;-79
2021/06/17 02:54:11;;;;;;;15.63;11.30;;;;;;;19.61;94.89;100976.31;6250248;28;20060;-80
2021/06/17 02:57:18;;;;;;;19.55;12.10;;;;;;;19.62;94.84;100980.69;6228063;28;20045;-80
2021/06/17 03:00:24;;;;;;;16.58;11.07;;;;;;;19.64;94.82;100988.53;6225485;28;20050;-80
2021/06/17 03:03:32;;;;;;;18.77;12.00;;;;;;;19.59;94.83;100996.06;6248462;28;20045;-79
2021/06/17 03:06:36;;;;;;;14.48;11.60;;;;;;;19.57;94.77;101000.69;6245653;28;20053;-81
2021/06/17 03:09:45;;;;;;;14.50;11.43;;;;;;;19.53;95.14;100992.13;6249757;28;20060;-79
2021/06/17 03:12:48;;;;;;;18.17;12.15;;;;;;;19.50;94.97;100998.56;6250459;28;20523;-81
2021/06/17 03:15:52;;;;;;;15.95;11.40;;;;;;;19.51;94.73;100994.06;6250048;28;20053;-80
2021/06/17 03:18:57;;;;;;;16.85;11.93;;;;;;;19.45;95.47;100983.94;6250374;28;20057;-81
2021/06/17 03:22:03;;;;;;;14.35;11.45;;;;;;;19.39;96.32;100987.13;6249769;28;20055;-80
2021/06/17 03:25:08;;;;;;;21.50;12.27;;;;;;;19.41;96.18;100990.53;6250479;28;20049;-80
2021/06/17 03:28:13;;;;;;;16.83;12.52;;;;;;;19.39;96.63;100987.97;6225632;28;20042;-80
2021/06/17 03:31:18;;;;;;;21.65;11.45;;;;;;;19.33;96.69;100983.19;6225463;28;20493;-80
2021/06/17 03:34:20;;;;;;;14.13;11.35;;;;;;;19.31;96.85;100985.16;6225395;28;20058;-80
2021/06/17 03:37:24;;;;;;;16.77;11.95;;;;;;;19.30;97.46;100990.59;6225644;28;20045;-80
2021/06/17 03:40:27;;;;;;;17.33;12.52;;;;;;;19.28;97.29;100980.06;6225825;28;20053;-80
2021/06/17 03:43:30;;;;;;;19.30;12.55;;;;;;;19.25;97.81;100977.66;6232184;28;20053;-80
2021/06/17 03:46:35;;;;;;;15.55;11.93;;;;;;;19.27;97.52;100978.38;6229372;28;20065;-80
2021/06/17 03:49:37;;;;;;;21.52;12.45;;;;;;;19.22;97.61;100980.59;6230853;28;20061;-80
2021/06/17 03:52:39;;;;;;;17.92;12.38;;;;;;;19.19;97.60;100976.38;6232573;28;20058;-80
2021/06/17 03:55:42;;;;;;;13.90;12.05;;;;;;;19.21;97.61;100973.56;6237153;28;20046;-81
2021/06/17 03:58:44;;;;;;;21.17;12.38;;;;;;;19.21;97.79;100974.44;6230875;28;20540;-80
2021/06/17 04:01:47;;;;;;;18.38;12.07;;;;;;;19.23;97.52;100966.31;6229597;28;20045;-81
2021/06/17 04:04:49;;;;;;;16.13;11.48;;;;;;;19.26;96.93;100963.38;6230600;28;20421;-81
2021/06/17 04:07:56;;;;;;;26.58;12.45;;;;;;;19.29;97.01;100965.75;6234291;28;20508;-81
2021/06/17 04:11:00;;;;;;;18.85;11.70;;;;;;;19.33;96.88;100972.53;6257469;28;20060;-81
2021/06/17 04:14:02;;;;;;;20.70;12.20;;;;;;;19.34;97.19;100968.03;6253532;28;20045;-80
2021/06/17 04:17:07;;;;;;;15.82;11.68;;;;;;;19.37;97.47;100973.94;6265044;28;20064;-81
2021/06/17 04:20:12;;;;;;;21.48;12.85;;;;;;;19.36;97.68;100968.75;6257933;28;20045;-81
2021/06/17 04:23:17;;;;;;;17.00;11.85;;;;;;;19.36;97.92;100966.94;6251505;28;20053;-81
2021/06/17 04:26:20;;;;;;;18.00;12.13;;;;;;;19.39;97.89;100973.81;6247784;28;20048;-81
2021/06/17 04:29:22;;;;;;;17.35;12.07;;;;;;;19.42;97.82;100974.38;6252155;28;20048;-81
2021/06/17 04:32:26;;;;;;;20.27;12.93;;;;;;;19.45;97.75;100965.28;6252295;28;20057;-81
2021/06/17 04:35:29;;;;;;;15.07;11.60;;;;;;;19.44;98.13;100964.44;6253504;28;20060;-81
2021/06/17 04:38:31;;;;;;;27.13;12.80;;;;;;;19.45;98.64;100973.28;6253918;28;20096;-81
2021/06/17 04:41:33;;;;;;;16.92;11.23;;;;;;;19.50;98.42;100976.41;6253150;28;20052;-81
2021/06/17 04:44:38;;;;;;;19.83;12.18;;;;;;;19.52;98.90;100972.59;6254680;28;20061;-81
2021/06/17 04:47:45;;;;;;;26.23;12.32;;;;;;;19.55;98.87;100978.66;6253055;28;20515;-81
2021/06/17 04:50:47;;;;;;;18.42;12.30;;;;;;;19.58;98.90;100975.72;6252810;28;20068;-81
2021/06/17 04:53:50;;;;;;;13.80;11.70;;;;;;;19.57;99.67;100977.53;6252867;28;20049;-81
2021/06/17 04:56:52;;;;;;;17.52;11.95;;;;;;;19.60;99.07;100982.63;6253914;28;20049;-81
2021/06/17 04:59:53;;;;;;;20.02;11.82;;;;;;;19.66;99.45;100981.25;6257718;28;20041;-81
2021/06/17 05:02:56;;;;;;;18.08;11.90;;;;;;;19.69;99.58;100978.31;6256660;28;20057;-81
2021/06/17 05:05:59;;;;;;;60.33;45.83;;;;;;;19.73;99.95;100979.75;6255149;28;20511;-80
2021/06/17 05:12:19;;;;;;;28.90;14.93;;;;;;;19.80;100.00;100985.34;6256127;28;20440;-81
2021/06/17 05:15:20;;;;;;;18.40;12.43;;;;;;;19.87;100.00;100994.53;6255195;28;20049;-81
2021/06/17 05:18:23;;;;;;;15.45;11.60;;;;;;;19.90;100.00;100994.25;6256191;28;20049;-81
2021/06/17 05:21:25;;;;;;;19.95;13.23;;;;;;;19.92;100.00;101001.13;6256035;28;20052;-81
2021/06/17 05:24:27;;;;;;;20.13;11.82;;;;;;;19.96;100.00;101005.22;6256761;28;20045;-81
2021/06/17 05:27:28;;;;;;;16.08;11.88;;;;;;;19.99;100.00;100999.63;6257906;28;20060;-81
2021/06/17 05:30:30;;;;;;;18.02;11.68;;;;;;;20.05;100.00;101006.22;6256197;28;20052;-81
2021/06/17 05:33:33;;;;;;;17.42;11.75;;;;;;;20.10;100.00;101009.31;6256139;28;20050;-81
2021/06/17 05:36:34;;;;;;;20.33;12.70;;;;;;;20.14;100.00;101008.06;6255859;28;20049;-81
2021/06/17 05:39:35;;;;;;;15.27;11.25;;;;;;;20.19;99.76;101010.31;6256288;28;20045;-81
2021/06/17 05:42:37;;;;;;;20.60;12.20;;;;;;;20.25;99.87;101009.75;6254522;28;20488;-80
2021/06/17 05:45:39;;;;;;;18.38;12.00;;;;;;;20.28;100.00;101005.00;6254928;28;20138;-81
2021/06/17 05:48:42;;;;;;;18.70;11.82;;;;;;;20.38;99.50;101004.16;6254283;28;20045;-80
2021/06/17 05:51:43;;;;;;;21.45;12.48;;;;;;;20.45;99.09;101006.16;6254383;28;20045;-81
2021/06/17 05:54:44;;;;;;;18.50;11.68;;;;;;;20.53;98.86;101008.16;6255079;28;20053;-81
2021/06/17 05:57:46;;;;;;;22.13;11.88;;;;;;;20.57;99.15;101001.53;6253777;28;20048;-81
2021/06/17 06:00:47;;;;;;;21.73;11.80;;;;;;;20.60;99.60;101011.94;6255380;28;20550;-81
2021/06/17 06:03:50;;;;;;;16.77;11.18;;;;;;;20.65;99.14;101016.88;6254837;28;20049;-81
2021/06/17 06:06:52;;;;;;;13.85;11.55;;;;;;;20.75;97.73;101009.69;6254060;28;20053;-81
2021/06/17 06:09:53;;;;;;;17.45;11.27;;;;;;;20.83;97.96;101012.50;6253405;28;20052;-81
2021/06/17 06:12:55;;;;;;;16.30;11.30;;;;;;;20.87;98.03;101015.75;6254741;28;20049;-81
2021/06/17 06:15:57;;;;;;;15.40;10.77;;;;;;;20.90;98.77;101005.63;6254432;28;20412;-81
2021/06/17 06:18:59;;;;;;;18.80;11.02;;;;;;;20.94;98.93;101020.38;6253777;28;20045;-81
2021/06/17 06:22:01;;;;;;;22.23;11.30;;;;;;;21.02;98.82;101015.16;6258873;28;20053;-81
2021/06/17 06:25:04;;;;;;;15.60;10.43;;;;;;;21.19;96.31;101012.72;6259294;28;20505;-81
2021/06/17 06:28:06;;;;;;;16.30;10.45;;;;;;;21.25;97.11;101012.16;6257246;28;20049;-82
2021/06/17 06:31:07;;;;;;;19.38;11.95;;;;;;;21.34;97.53;101007.78;6256274;28;20046;-82
2021/06/17 06:34:10;;;;;;;14.23;10.38;;;;;;;21.47;92.89;101013.66;6252610;28;20053;-82
2021/06/17 06:37:11;;;;;;;17.05;9.02;;;;;;;21.57;92.82;101016.31;6255678;28;20049;-80
2021/06/17 06:40:14;;;;;;;13.48;8.75;;;;;;;21.63;92.49;101018.41;6256924;28;20041;-81
2021/06/17 06:43:16;;;;;;;16.00;9.55;;;;;;;21.67;94.21;101020.66;6257759;28;20049;-80
2021/06/17 06:46:18;;;;;;;16.25;9.13;;;;;;;21.74;94.93;101028.91;6256302;28;20049;-81
2021/06/17 06:49:21;;;;;;;11.93;8.77;;;;;;;21.90;91.56;101017.59;6256058;28;20045;-81
2021/06/17 06:52:22;;;;;;;15.45;8.93;;;;;;;21.86;91.62;101024.22;6256335;28;20056;-81
2021/06/17 06:55:24;;;;;;;14.35;8.98;;;;;;;21.92;92.24;101024.47;6255857;28;20481;-80
2021/06/17 06:58:25;;;;;;;13.75;8.55;;;;;;;22.08;88.70;101025.66;6254368;28;20057;-80
2021/06/17 07:01:26;;;;;;;12.50;8.15;;;;;;;22.19;87.48;101017.44;6255476;28;20060;-81
2021/06/17 07:04:29;;;;;;;15.73;8.93;;;;;;;22.19;89.49;101020.13;6255875;28;20064;-80
2021/06/17 07:07:30;;;;;;;13.60;8.38;;;;;;;22.21;89.15;101023.47;6252473;28;20389;-81
2021/06/17 07:10:32;;;;;;;14.60;8.52;;;;;;;22.25;89.66;101030.22;6251955;28;20412;-81
2021/06/17 07:13:33;;;;;;;14.63;7.97;;;;;;;22.29;89.21;101028.94;6251685;28;20050;-80
2021/06/17 07:16:35;;;;;;;12.60;7.75;;;;;;;22.39;87.66;101036.88;6251228;28;20049;-80
2021/06/17 07:19:38;;;;;;;18.55;9.02;;;;;;;22.45;89.54;101033.63;6249504;28;20493;-76
2021/06/17 07:22:39;;;;;;;9.57;7.78;;;;;;;22.50;87.20;101036.69;6248892;28;20049;-81
2021/06/17 07:25:41;;;;;;;10.38;7.10;;;;;;;22.60;87.65;101034.78;6248925;28;20053;-79
2021/06/17 07:28:43;;;;;;;18.83;7.95;;;;;;;22.62;86.63;101031.94;6254749;28;20053;-80
2021/06/17 07:31:45;;;;;;;12.82;8.18;;;;;;;22.78;84.65;101038.28;6253539;28;20058;-75
2021/06/17 07:34:48;;;;;;;24.75;8.35;;;;;;;22.86;85.40;101042.06;6250534;28;20052;-78
2021/06/17 07:37:49;;;;;;;17.50;8.45;;;;;;;22.92;86.75;101042.28;6252785;28;20056;-78
2021/06/17 07:40:51;;;;;;;14.50;8.10;;;;;;;22.97;87.83;101037.31;6249447;28;20045;-78
2021/06/17 07:43:52;;;;;;;19.73;7.55;;;;;;;23.11;86.19;101022.50;6250304;28;20436;-78
2021/06/17 07:46:53;;;;;;;12.57;7.60;;;;;;;23.18;84.19;101028.94;6248341;28;20500;-77
2021/06/17 07:49:56;;;;;;;9.93;7.13;;;;;;;23.30;84.03;101024.16;6248125;28;20049;-75
2021/06/17 07:52:57;;;;;;;12.80;7.30;;;;;;;23.30;85.05;101029.53;6248589;28;20045;-78
2021/06/17 07:55:59;;;;;;;17.50;7.40;;;;;;;23.36;84.26;101022.69;6251143;28;20439;-77
2021/06/17 07:59:00;;;;;;;10.65;7.00;;;;;;;23.37;81.74;101027.03;6247114;28;20045;-80
2021/06/17 08:02:03;;;;;;;9.13;6.78;;;;;;;23.50;80.96;101027.44;6248277;28;20053;-80
2021/06/17 08:05:08;;;;;;;18.13;7.90;;;;;;;23.71;80.75;101019.03;6250174;28;20053;-80
2021/06/17 08:08:09;;;;;;;11.75;7.53;;;;;;;23.75;80.38;101018.56;6248155;28;20045;-79
2021/06/17 08:11:11;;;;;;;14.63;7.07;;;;;;;23.79;81.20;101022.59;6247788;28;20057;-79
2021/06/17 08:14:12;;;;;;;14.63;6.65;;;;;;;23.85;81.77;101020.28;6248502;28;20092;-80
2021/06/17 08:17:13;;;;;;;11.15;7.03;;;;;;;23.98;81.01;101021.50;6248767;28;20508;-80
2021/06/17 08:20:17;;;;;;;19.45;7.25;;;;;;;23.99;80.31;101009.75;6251435;28;20045;-80
2021/06/17 08:23:19;;;;;;;9.98;6.90;;;;;;;24.27;77.03;101007.66;6256403;28;20060;-80
2021/06/17 08:26:20;;;;;;;11.63;5.88;;;;;;;24.36;77.25;101005.00;6248517;28;20046;-80
2021/06/17 08:29:22;;;;;;;14.43;6.43;;;;;;;24.31;76.87;101000.13;6253029;28;20417;-79
2021/06/17 08:32:24;;;;;;;11.18;6.15;;;;;;;24.36;76.84;100992.41;6249830;28;20053;-79
2021/06/17 08:35:27;;;;;;;10.10;5.93;;;;;;;24.44;77.13;100986.22;6252613;28;20046;-76
2021/06/17 08:38:28;;;;;;;7.95;5.50;;;;;;;24.47;78.32;100986.72;6252424;28;20056;-78
2021/06/17 08:41:29;;;;;;;15.38;6.63;;;;;;;24.58;74.62;100977.50;6254957;28;20052;-78
2021/06/17 08:44:31;;;;;;;9.80;5.88;;;;;;;24.65;75.91;100981.19;6252465;28;20049;-80
2021/06/17 08:47:35;;;;;;;9.82;6.30;;;;;;;24.69;76.03;100981.69;6252880;28;20079;-80
2021/06/17 08:50:38;;;;;;;9.38;5.95;;;;;;;24.82;71.83;100968.59;6252292;28;20566;-82
2021/06/17 08:53:40;;;;;;;9.55;5.60;;;;;;;24.91;72.81;100972.94;6254613;28;20053;-77
2021/06/17 08:56:41;;;;;;;12.25;6.13;;;;;;;24.96;75.10;100975.97;6251728;28;20061;-79
2021/06/17 08:59:45;;;;;;;15.52;5.88;;;;;;;25.05;74.39;100966.88;6252570;28;20056;-81
2021/06/17 09:02:54;;;;;;;12.85;5.28;;;;;;;25.27;69.55;100973.41;6250855;28;20504;-78
2021/06/17 09:05:57;;;;;;;9.02;5.03;;;;;;;25.44;70.49;100962.63;6251603;28;20444;-80
2021/06/17 09:08:59;;;;;;;11.43;4.85;;;;;;;25.47;67.16;100962.25;6253555;28;20053;-81
2021/06/17 09:12:00;;;;;;;8.63;4.97;;;;;;;25.61;68.52;100958.00;6253974;28;20053;-78
2021/06/17 09:15:03;;;;;;;9.15;4.82;;;;;;;25.69;67.80;100957.97;6252439;28;20053;-79
2021/06/17 09:18:16;;;;;;;6.22;4.55;;;;;;;25.63;66.12;100951.44;6251850;28;20049;-79
2021/06/17 09:21:21;;;;;;;10.73;5.28;;;;;;;25.60;68.34;100949.09;6244840;28;20132;-78
2021/06/17 09:24:29;;;;;;;14.75;4.95;;;;;;;25.84;63.05;100934.69;6253166;28;20377;-79
2021/06/17 09:27:34;;;;;;;15.00;4.63;;;;;;;25.94;66.18;100951.47;6252227;28;20512;-77
2021/06/17 09:30:36;;;;;;;10.25;4.68;;;;;;;26.04;66.04;100945.88;6255494;28;20092;-80
2021/06/17 09:33:42;;;;;;;10.73;4.65;;;;;;;26.29;62.91;100949.22;6257600;28;20057;-79
2021/06/17 09:36:46;;;;;;;9.23;3.83;;;;;;;26.36;60.33;100941.28;6253516;28;20136;-80
2021/06/17 09:39:47;;;;;;;11.10;4.30;;;;;;;26.29;59.58;100939.28;6254846;28;20060;-81
2021/06/17 09:42:49;;;;;;;6.57;3.17;;;;;;;26.37;63.27;100943.78;6255802;28;20053;-80
2021/06/17 09:45:57;;;;;;;9.75;6.45;;;;;;;26.51;58.30;100928.69;6258431;28;20052;-81
2021/06/17 09:49:04;;;;;;;6.70;5.90;;;;;;;26.56;56.99;100934.38;6257345;28;20052;-80
2021/06/17 09:52:10;;;;;;;8.23;3.70;;;;;;;26.68;58.02;100945.59;6262789;28;20057;-81
2021/06/17 09:55:12;;;;;;;11.93;3.45;;;;;;;26.81;56.39;100943.94;6261773;28;20045;-82
2021/06/17 09:58:37;;;;;;;7.78;4.32;;;;;;;26.97;58.08;100947.47;6263867;28;20056;-78
2021/06/17 10:01:42;;;;;;;9.88;4.22;;;;;;;27.10;55.28;100945.03;6255643;28;20105;-80
2021/06/17 10:04:44;;;;;;;5.65;3.85;;;;;;;27.20;56.62;100945.56;6253182;28;20056;-81
2021/06/17 10:07:48;;;;;;;6.68;3.70;;;;;;;27.35;56.43;100945.59;6252130;28;20092;-81
2021/06/17 10:10:50;;;;;;;7.13;3.65;;;;;;;27.44;54.24;100947.19;6253634;28;20052;-81
2021/06/17 10:13:53;;;;;;;8.45;3.85;;;;;;;27.60;54.77;100945.28;6253159;28;20050;-80
2021/06/17 10:16:55;;;;;;;7.90;3.25;;;;;;;27.71;56.00;100951.06;6253004;28;20053;-80
2021/06/17 10:19:58;;;;;;;10.80;4.07;;;;;;;27.75;55.35;100948.81;6252622;28;20045;-81
2021/06/17 10:23:01;;;;;;;13.65;4.20;;;;;;;27.84;55.05;100942.28;6253230;28;20045;-80
2021/06/17 10:26:05;;;;;;;8.98;3.00;;;;;;;27.84;57.61;100941.44;6265642;28;20059;-80
2021/06/17 10:29:07;;;;;;;7.03;2.90;;;;;;;28.02;55.38;100944.56;6286880;28;20072;-80
2021/06/17 10:32:11;;;;;;;5.53;3.20;;;;;;;28.06;53.64;100930.47;6284286;28;20053;-80
2021/06/17 10:35:26;;;;;;;13.45;3.63;;;;;;;28.19;51.14;100928.94;6281173;28;20045;-80
2021/06/17 10:38:29;;;;;;;8.02;3.10;;;;;;;28.25;49.67;100922.75;6281065;28;20424;-81
2021/06/17 10:42:13;;;;;;;8.63;3.10;;;;;;;28.29;50.73;100924.03;6280514;28;20617;-80
2021/06/17 10:45:17;;;;;;;4.75;3.78;;;;;;;28.43;51.81;100925.03;6250974;28;20098;-81
2021/06/17 10:48:24;;;;;;;8.40;2.85;;;;;;;28.80;45.69;100904.97;6283489;28;20183;-80
2021/06/17 10:51:27;;;;;;;4.95;2.85;;;;;;;29.15;45.98;100902.28;6282719;28;20395;-80
2021/06/17 10:54:55;;;;;;;5.68;3.30;;;;;;;29.21;49.05;100896.09;6278192;28;20410;-81
2021/06/17 10:57:57;;;;;;;5.35;3.20;;;;;;;29.25;43.89;100900.03;6280040;28;20049;-80
2021/06/17 11:00:59;;;;;;;4.97;3.10;;;;;;;29.43;44.70;100896.78;6282355;28;20128;-80
2021/06/17 11:04:21;;;;;;;6.50;2.92;;;;;;;29.47;45.07;100903.47;6270728;28;20064;-81
2021/06/17 11:07:24;;;;;;;9.50;3.10;;;;;;;29.54;46.39;100910.59;6253197;28;20053;-80
2021/06/17 11:10:45;;;;;;;4.75;2.72;;;;;;;29.57;44.18;100898.56;6250946;28;20049;-79
2021/06/17 11:13:54;;;;;;;8.18;3.25;;;;;;;29.74;43.94;100902.56;6250372;28;20049;-81
2021/06/17 11:16:56;;;;;;;12.75;3.58;;;;;;;29.97;44.98;100894.06;6256701;28;20053;-80
2021/06/17 11:20:00;;;;;;;4.63;3.10;;;;;;;30.33;42.39;100890.19;6252308;28;20053;-77
2021/06/17 11:23:02;;;;;;;6.05;2.65;;;;;;;30.55;42.07;100899.78;6251749;28;20127;-78
2021/06/17 11:26:04;;;;;;;5.15;2.60;;;;;;;30.80;45.33;100902.72;6258021;28;20056;-79
2021/06/17 11:29:07;;;;;;;8.02;3.20;;;;;;;30.96;40.77;100892.44;6275624;28;20052;-79
2021/06/17 11:32:25;;;;;;;5.15;3.00;;;;;;;31.16;43.24;100886.97;6283268;28;20060;-80
2021/06/17 11:35:31;;;;;;;10.55;3.70;;;;;;;31.46;42.59;100882.69;6282078;28;20052;-78
2021/06/17 11:38:35;;;;;;;8.43;3.42;;;;;;;31.88;47.46;100891.28;6279265;28;20045;-81
2021/06/17 11:41:39;;;;;;;6.72;3.70;;;;;;;32.15;41.87;100894.66;6263804;28;20052;-78
2021/06/17 11:44:41;;;;;;;9.15;3.30;;;;;;;32.30;41.23;100887.03;6256304;28;20045;-78
2021/06/17 11:47:46;;;;;;;4.20;3.10;;;;;;;32.54;40.86;100884.53;6253757;28;20053;-79
2021/06/17 11:50:50;;;;;;;5.47;3.28;;;;;;;32.67;40.86;100880.88;6249970;28;20053;-78
2021/06/17 11:53:54;;;;;;;15.57;3.20;;;;;;;32.87;40.84;100876.03;6252798;28;20421;-80
2021/06/17 11:56:58;;;;;;;3.90;3.15;;;;;;;33.01;40.07;100879.47;6255624;28;20045;-81
2021/06/17 12:00:02;;;;;;;10.57;3.13;;;;;;;33.28;40.48;100871.84;6256026;28;20092;-81
2021/06/17 12:03:16;;;;;;;5.97;3.03;;;;;;;33.36;38.29;100865.25;6254331;28;20100;-80
2021/06/17 12:06:17;;;;;;;9.05;4.18;;;;;;;33.63;37.90;100872.03;6256052;28;20143;-78
2021/06/17 12:09:25;;;;;;;9.05;3.05;;;;;;;33.79;37.50;100871.41;6263599;28;20492;-80
2021/06/17 12:12:28;;;;;;;9.85;3.30;;;;;;;34.00;37.08;100870.03;6258546;28;20404;-80
2021/06/17 12:15:30;;;;;;;6.95;3.25;;;;;;;34.13;35.18;100876.38;6259937;28;20053;-79
2021/06/17 12:18:32;;;;;;;8.45;3.38;;;;;;;34.19;35.46;100880.88;6260802;28;20050;-81
2021/06/17 12:21:34;;;;;;;8.48;3.53;;;;;;;34.32;37.70;100876.03;6257565;28;20076;-81
2021/06/17 12:24:35;;;;;;;5.75;3.20;;;;;;;34.27;36.13;100869.63;6255397;28;20053;-81
2021/06/17 12:27:42;;;;;;;6.93;3.03;;;;;;;34.23;36.96;100863.78;6277946;28;20049;-79
2021/06/17 12:30:46;;;;;;;9.32;3.72;;;;;;;34.28;36.50;100865.81;6280132;28;20052;-81
2021/06/17 12:33:47;;;;;;;7.38;3.60;;;;;;;34.16;39.81;100870.41;6279997;28;20049;-81
2021/06/17 12:36:59;;;;;;;11.13;3.25;;;;;;;34.21;38.38;100865.13;6278702;28;20415;-80
2021/06/17 12:40:04;;;;;;;7.63;3.80;;;;;;;34.46;35.07;100868.47;6233416;28;20136;-79
2021/06/17 12:43:18;;;;;;;6.35;3.53;;;;;;;34.62;37.54;100874.31;6249340;28;20045;-79
2021/06/17 12:46:25;;;;;;;5.03;3.30;;;;;;;34.66;36.35;100873.59;6250993;28;20056;-79
2021/06/17 12:52:57;;;;;;;;;;;;;;;34.77;34.48;100861.81;6250415;28;20049;-80
2021/06/17 12:56:00;;;;;;;5.57;3.10;;;;;;;34.93;35.67;100870.34;6252317;28;19931;-81
2021/06/17 12:59:03;;;;;;;5.90;3.10;;;;;;;34.83;35.06;100863.56;6256033;28;20488;-82
2021/06/17 13:02:04;;;;;;;8.95;2.72;;;;;;;35.12;33.74;100860.13;6259436;28;20053;-80
2021/06/17 13:05:08;;;;;;;4.97;3.13;;;;;;;35.26;31.79;100856.88;6257574;28;20056;-80
2021/06/17 13:08:11;;;;;;;6.88;2.92;;;;;;;35.44;33.22;100864.06;6254316;28;20056;-79
2021/06/17 13:11:12;;;;;;;8.75;3.20;;;;;;;35.52;35.45;100857.38;6253188;28;20050;-80
2021/06/17 13:14:15;;;;;;;8.85;3.70;;;;;;;35.19;33.88;100852.63;6253784;28;20046;-80
2021/06/17 13:17:19;;;;;;;8.45;3.65;;;;;;;35.51;33.26;100859.28;6252288;28;20050;-80
2021/06/17 13:20:31;;;;;;;7.30;2.97;;;;;;;35.50;32.23;100859.56;6252466;28;20045;-81
2021/06/17 13:23:35;;;;;;;9.20;3.08;;;;;;;35.53;33.36;100862.63;6252291;28;20068;-81
2021/06/17 13:26:36;;;;;;;5.57;2.95;;;;;;;35.41;33.16;100859.09;6252596;28;20080;-81
2021/06/17 13:29:51;;;;;;;4.60;2.97;;;;;;;35.17;31.59;100863.81;6252428;28;20045;-81
2021/06/17 13:32:52;;;;;;;6.38;3.10;;;;;;;35.37;31.81;100862.53;6252351;28;20049;-80
2021/06/17 13:35:54;;;;;;;11.18;3.28;;;;;;;35.34;29.93;100866.59;6252652;28;20489;-81
2021/06/17 13:38:56;;;;;;;9.45;3.17;;;;;;;35.43;33.33;100867.03;6253415;28;20049;-80
2021/06/17 13:41:57;;;;;;;5.57;3.10;;;;;;;35.41;32.90;100859.09;6253264;28;20129;-81
2021/06/17 13:45:00;;;;;;;7.70;3.30;;;;;;;35.70;33.59;100865.41;6253409;28;20420;-81
2021/06/17 13:48:01;;;;;;;7.78;3.15;;;;;;;35.71;34.32;100860.78;6252856;28;20087;-80
2021/06/17 13:51:03;;;;;;;10.80;3.65;;;;;;;35.87;30.72;100853.66;6253081;28;20052;-81
2021/06/17 13:54:04;;;;;;;6.75;3.35;;;;;;;35.70;33.77;100854.47;6253682;28;20492;-81
2021/06/17 13:57:08;;;;;;;5.75;3.05;;;;;;;35.79;34.09;100860.34;6253237;28;20049;-80
2021/06/17 14:00:13;;;;;;;7.55;2.97;;;;;;;35.94;32.89;100852.44;6253096;28;20432;-81
2021/06/17 14:03:15;;;;;;;10.43;3.28;;;;;;;35.71;34.05;100852.56;6253669;28;20072;-81
2021/06/17 14:06:16;;;;;;;5.22;3.05;;;;;;;35.91;32.95;100854.81;6253651;28;20618;-80
2021/06/17 14:09:17;;;;;;;7.03;2.80;;;;;;;35.86;30.30;100855.56;6253246;28;20050;-80
2021/06/17 14:12:18;;;;;;;4.45;2.90;;;;;;;35.56;32.71;100853.09;6253271;28;20050;-81